createdAt,value
2022-08-18T00:00:57.473Z,22.07
2022-08-18T00:04:17.673Z,22.06
2022-08-18T00:07:32.825Z,22.02
2022-08-18T00:10:44.402Z,22.00
2022-08-18T00:13:50.319Z,21.95
2022-08-18T00:16:58.013Z,21.92
2022-08-18T00:20:07.094Z,21.89
2022-08-18T00:23:14.279Z,21.86
2022-08-18T00:26:23.107Z,21.84
2022-08-18T00:29:29.934Z,21.81
2022-08-18T00:32:38.417Z,21.76
2022-08-18T00:35:45.238Z,21.73
2022-08-18T00:38:51.522Z,21.70
2022-08-18T00:42:03.098Z,21.69
2022-08-18T00:45:10.518Z,21.64
2022-08-18T00:48:18.815Z,21.58
2022-08-18T00:51:29.058Z,21.59
2022-08-18T00:54:40.470Z,21.56
2022-08-18T00:57:52.120Z,21.54
2022-08-18T01:00:59.100Z,21.49
2022-08-18T01:04:12.990Z,21.46
2022-08-18T01:07:23.560Z,21.43
2022-08-18T01:10:29.519Z,21.38
2022-08-18T01:13:41.835Z,21.34
2022-08-18T01:17:04.306Z,21.28
2022-08-18T01:20:29.739Z,21.25
2022-08-18T01:23:42.903Z,21.23
2022-08-18T01:26:50.561Z,21.19
2022-08-18T01:29:57.772Z,21.17
2022-08-18T01:33:10.843Z,21.14
2022-08-18T01:36:18.718Z,21.09
2022-08-18T01:41:17.375Z,21.07
2022-08-18T01:42:57.101Z,21.02
2022-08-18T01:46:04.456Z,21.00
2022-08-18T01:49:13.600Z,20.95
2022-08-18T01:52:22.567Z,20.91
2022-08-18T01:55:32.321Z,20.86
2022-08-18T01:58:40.042Z,20.83
2022-08-18T02:01:53.003Z,20.80
2022-08-18T02:05:08.625Z,20.79
2022-08-18T02:08:15.766Z,20.78
2022-08-18T02:11:24.859Z,20.78
2022-08-18T02:14:31.808Z,20.71
2022-08-18T02:17:41.358Z,20.66
2022-08-18T02:20:48.421Z,20.63
2022-08-18T02:23:54.607Z,20.61
2022-08-18T02:27:06.169Z,20.62
2022-08-18T02:30:15.256Z,20.63
2022-08-18T02:33:22.211Z,20.63
2022-08-18T02:36:28.619Z,20.61
2022-08-18T02:39:38.246Z,20.60
2022-08-18T02:42:47.449Z,20.58
2022-08-18T02:45:54.376Z,20.55
2022-08-18T02:49:00.591Z,20.54
2022-08-18T02:52:10.064Z,20.52
2022-08-18T02:55:16.993Z,20.50
2022-08-18T02:58:30.443Z,20.48
2022-08-18T03:01:41.765Z,20.45
2022-08-18T03:04:48.906Z,20.42
2022-08-18T03:07:55.550Z,20.40
2022-08-18T03:11:04.155Z,20.38
2022-08-18T03:14:13.404Z,20.35
2022-08-18T03:17:20.513Z,20.33
2022-08-18T03:20:30.100Z,20.31
2022-08-18T03:23:40.420Z,20.28
2022-08-18T03:26:48.614Z,20.27
2022-08-18T03:29:59.009Z,20.24
2022-08-18T03:33:06.529Z,20.23
2022-08-18T03:36:17.588Z,20.21
2022-08-18T03:39:25.563Z,20.21
2022-08-18T03:42:33.666Z,20.19
2022-08-18T03:45:42.857Z,20.18
2022-08-18T03:48:50.319Z,20.17
2022-08-18T03:51:56.436Z,20.16
2022-08-18T03:55:03.843Z,20.14
2022-08-18T03:58:14.562Z,20.14
2022-08-18T04:01:29.627Z,20.16
2022-08-18T04:04:35.807Z,20.18
2022-08-18T04:07:44.648Z,20.21
2022-08-18T04:10:50.689Z,20.22
2022-08-18T04:13:59.123Z,20.27
2022-08-18T04:17:12.653Z,20.32
2022-08-18T04:20:19.995Z,20.35
2022-08-18T04:23:26.277Z,20.38
2022-08-18T04:26:33.318Z,20.42
2022-08-18T04:29:39.540Z,20.47
2022-08-18T04:32:49.391Z,20.51
2022-08-18T04:35:55.803Z,20.59
2022-08-18T04:39:03.742Z,20.64
2022-08-18T04:42:10.585Z,20.68
2022-08-18T04:45:17.436Z,20.73
2022-08-18T04:48:27.232Z,20.80
2022-08-18T04:52:33.975Z,20.84
2022-08-18T04:54:57.398Z,20.91
2022-08-18T04:58:04.328Z,21.01
2022-08-18T05:01:10.593Z,21.11
2022-08-18T05:04:21.086Z,21.22
2022-08-18T05:07:27.138Z,21.33
2022-08-18T05:10:34.954Z,21.42
2022-08-18T05:13:40.859Z,21.53
2022-08-18T05:16:49.710Z,21.62
2022-08-18T05:19:59.050Z,21.75
2022-08-18T05:23:07.194Z,21.77
2022-08-18T05:26:14.150Z,21.74
2022-08-18T05:29:21.482Z,21.78
2022-08-18T05:32:48.235Z,21.81
2022-08-18T05:36:07.654Z,21.88
2022-08-18T05:39:21.518Z,21.92
2022-08-18T05:42:30.988Z,22.02
2022-08-18T05:45:38.281Z,22.16
2022-08-18T05:48:45.330Z,22.33
2022-08-18T05:51:57.645Z,22.47
2022-08-18T05:55:24.649Z,22.61
2022-08-18T05:58:36.127Z,22.79
2022-08-18T06:01:46.692Z,22.92
2022-08-18T06:04:59.158Z,23.10
2022-08-18T06:08:13.656Z,23.24
2022-08-18T06:11:22.382Z,23.37
2022-08-18T06:14:29.969Z,23.50
2022-08-18T06:18:03.314Z,23.62
2022-08-18T06:21:20.306Z,23.70
2022-08-18T06:24:37.888Z,23.78
2022-08-18T06:27:56.028Z,23.87
2022-08-18T06:31:08.520Z,24.00
2022-08-18T06:34:25.350Z,24.11
2022-08-18T06:37:56.613Z,24.20
2022-08-18T06:41:37.926Z,24.34
2022-08-18T06:44:46.278Z,24.42
2022-08-18T06:47:59.771Z,24.51
2022-08-18T06:51:10.807Z,24.63
2022-08-18T06:54:31.102Z,24.77
2022-08-18T06:57:43.255Z,24.87
2022-08-18T07:00:59.923Z,25.00
2022-08-18T07:04:07.665Z,25.07
2022-08-18T07:07:20.739Z,25.15
2022-08-18T07:10:37.204Z,25.24
2022-08-18T07:13:58.626Z,25.27
2022-08-18T07:17:16.922Z,25.33
2022-08-18T07:20:26.063Z,25.37
2022-08-18T07:23:38.551Z,25.41
2022-08-18T07:27:10.595Z,25.51
2022-08-18T07:30:33.405Z,25.58
2022-08-18T07:33:40.674Z,25.63
2022-08-18T07:36:52.577Z,25.71
2022-08-18T07:40:07.034Z,25.83
2022-08-18T07:43:20.831Z,25.96
2022-08-18T07:46:39.667Z,26.10
2022-08-18T07:50:16.481Z,26.22
2022-08-18T07:53:20.592Z,26.37
2022-08-18T07:56:40.199Z,26.47
2022-08-18T07:59:55.918Z,26.54
2022-08-18T08:03:22.516Z,26.54
2022-08-18T08:06:35.887Z,26.57
2022-08-18T08:09:54.819Z,26.67
2022-08-18T08:13:19.350Z,26.74
2022-08-18T08:16:44.672Z,26.88
2022-08-18T08:20:15.264Z,27.00
2022-08-18T08:23:32.215Z,27.07
2022-08-18T08:26:54.087Z,27.16
2022-08-18T08:30:07.177Z,27.18
2022-08-18T08:33:20.919Z,27.22
2022-08-18T08:36:34.307Z,27.24
2022-08-18T08:39:48.249Z,27.30
2022-08-18T08:43:03.357Z,27.40
2022-08-18T08:46:15.971Z,27.46
2022-08-18T08:49:41.136Z,27.55
2022-08-18T08:52:58.585Z,27.58
2022-08-18T08:56:10.087Z,27.68
2022-08-18T08:59:19.956Z,27.73
2022-08-18T09:02:55.636Z,27.73
2022-08-18T09:06:24.603Z,27.75
2022-08-18T09:09:59.426Z,27.86
2022-08-18T09:13:31.736Z,27.91
2022-08-18T09:16:50.999Z,27.95
2022-08-18T09:20:14.686Z,28.00
2022-08-18T09:23:23.933Z,28.03
2022-08-18T09:26:45.832Z,28.07
2022-08-18T09:29:57.011Z,28.09
2022-08-18T09:33:21.653Z,28.14
2022-08-18T09:36:41.918Z,28.14
2022-08-18T09:40:18.359Z,28.16
2022-08-18T09:43:37.443Z,28.17
2022-08-18T09:47:03.350Z,28.17
2022-08-18T09:50:48.814Z,28.18
2022-08-18T09:54:12.232Z,28.18
2022-08-18T09:57:24.736Z,28.20
2022-08-18T10:00:34.947Z,28.26
2022-08-18T10:03:40.964Z,28.32
2022-08-18T10:10:59.397Z,28.20
2022-08-18T10:14:07.906Z,28.18
2022-08-18T10:17:38.116Z,28.26
2022-08-18T10:21:03.792Z,28.25
2022-08-18T10:24:36.139Z,28.28
2022-08-18T10:27:54.388Z,28.29
2022-08-18T10:31:10.452Z,28.24
2022-08-18T10:34:51.589Z,28.26
2022-08-18T10:38:00.351Z,28.28
2022-08-18T10:41:15.913Z,28.31
2022-08-18T10:44:30.891Z,28.31
2022-08-18T10:47:38.024Z,28.31
2022-08-18T10:50:55.784Z,28.35
2022-08-18T10:54:07.681Z,28.38
2022-08-18T10:57:21.797Z,28.35
2022-08-18T11:00:40.033Z,28.40
2022-08-18T11:07:44.935Z,28.52
2022-08-18T11:11:32.575Z,28.64
2022-08-18T11:14:41.498Z,28.71
2022-08-18T11:18:04.452Z,28.70
2022-08-18T11:21:41.669Z,28.73
2022-08-18T11:24:52.995Z,28.73
2022-08-18T11:28:00.837Z,28.76
2022-08-18T11:31:08.319Z,28.83
2022-08-18T11:34:18.513Z,28.86
2022-08-18T11:44:44.192Z,28.97
2022-08-18T11:48:13.658Z,29.02
2022-08-18T11:51:27.071Z,29.07
2022-08-18T11:54:50.859Z,29.16
2022-08-18T11:58:12.582Z,29.18
2022-08-18T12:01:40.900Z,29.25
2022-08-18T12:05:10.419Z,29.26
2022-08-18T12:08:54.523Z,29.33
2022-08-18T12:11:57.023Z,29.38
2022-08-18T12:15:43.652Z,29.48
2022-08-18T12:18:52.937Z,29.50
2022-08-18T12:22:11.635Z,29.49
2022-08-18T12:25:25.198Z,29.53
2022-08-18T12:28:32.714Z,29.51
2022-08-18T12:31:47.754Z,29.44
2022-08-18T12:34:55.490Z,29.36
2022-08-18T12:38:03.611Z,29.45
2022-08-18T12:41:23.854Z,29.55
2022-08-18T12:44:30.078Z,29.68
2022-08-18T12:47:43.017Z,29.79
2022-08-18T12:50:54.410Z,29.87
2022-08-18T12:54:03.612Z,29.95
2022-08-18T12:57:33.349Z,30.00
2022-08-18T13:00:49.728Z,29.96
2022-08-18T13:04:11.530Z,29.91
2022-08-18T13:07:20.684Z,29.89
2022-08-18T13:10:44.809Z,29.99
2022-08-18T13:13:56.290Z,30.14
2022-08-18T13:17:03.607Z,30.23
2022-08-18T13:20:21.217Z,30.18
2022-08-18T13:23:27.608Z,30.12
2022-08-18T13:26:36.540Z,30.07
2022-08-18T13:29:43.105Z,30.10
2022-08-18T13:33:00.475Z,30.12
2022-08-18T13:36:15.223Z,30.08
2022-08-18T13:39:24.191Z,30.06
2022-08-18T13:42:50.357Z,30.13
2022-08-18T13:45:58.435Z,30.13
2022-08-18T13:49:06.377Z,30.21
2022-08-18T13:52:33.396Z,30.41
2022-08-18T13:55:41.430Z,30.66
2022-08-18T13:58:53.420Z,30.89
2022-08-18T14:01:59.723Z,31.00
2022-08-18T14:05:09.599Z,31.10
2022-08-18T14:08:20.388Z,31.14
2022-08-18T14:11:32.993Z,31.26
2022-08-18T14:14:39.447Z,31.33
2022-08-18T14:17:46.532Z,31.39
2022-08-18T14:21:09.971Z,31.48
2022-08-18T14:24:38.478Z,31.57
2022-08-18T14:27:44.582Z,31.68
2022-08-18T14:31:07.068Z,31.77
2022-08-18T14:34:13.782Z,31.81
2022-08-18T14:37:28.682Z,31.81
2022-08-18T14:40:41.686Z,31.85
2022-08-18T14:44:12.199Z,31.83
2022-08-18T14:47:24.539Z,31.65
2022-08-18T14:50:31.621Z,31.51
2022-08-18T14:53:38.178Z,31.45
2022-08-18T14:56:50.597Z,31.45
2022-08-18T14:59:57.380Z,31.34
2022-08-18T15:03:06.478Z,31.20
2022-08-18T15:06:17.113Z,31.23
2022-08-18T15:09:30.357Z,31.27
2022-08-18T15:12:39.928Z,31.27
2022-08-18T15:15:51.911Z,31.40
2022-08-18T15:18:58.169Z,31.50
2022-08-18T15:22:20.770Z,31.57
2022-08-18T15:25:42.202Z,31.46
2022-08-18T15:28:51.704Z,31.36
2022-08-18T15:32:05.181Z,31.29
2022-08-18T15:35:15.920Z,31.45
2022-08-18T15:38:25.743Z,31.60
2022-08-18T15:41:43.913Z,31.85
2022-08-18T15:44:54.273Z,32.33
2022-08-18T15:48:01.336Z,32.97
2022-08-18T15:51:11.849Z,33.58
2022-08-18T15:54:19.752Z,34.15
2022-08-18T15:57:39.560Z,34.63
2022-08-18T16:00:52.589Z,35.19
2022-08-18T16:04:00.026Z,35.55
2022-08-18T16:07:09.810Z,35.96
2022-08-18T16:10:16.179Z,36.27
2022-08-18T16:13:24.749Z,36.50
2022-08-18T16:16:35.976Z,36.61
2022-08-18T16:19:43.390Z,36.72
2022-08-18T16:22:51.386Z,36.70
2022-08-18T16:26:04.551Z,36.61
2022-08-18T16:29:10.641Z,36.61
2022-08-18T16:32:20.174Z,36.64
2022-08-18T16:35:27.531Z,36.57
2022-08-18T16:38:34.308Z,36.47
2022-08-18T16:41:40.748Z,36.37
2022-08-18T16:44:48.315Z,36.22
2022-08-18T16:47:57.522Z,36.09
2022-08-18T16:51:04.538Z,35.73
2022-08-18T16:54:13.188Z,35.25
2022-08-18T16:57:53.405Z,34.67
2022-08-18T17:01:18.979Z,34.01
2022-08-18T17:04:33.790Z,33.47
2022-08-18T17:07:40.257Z,33.00
2022-08-18T17:10:47.818Z,32.52
2022-08-18T17:13:54.816Z,32.10
2022-08-18T17:17:03.597Z,31.75
2022-08-18T17:20:15.867Z,31.52
2022-08-18T17:23:24.527Z,31.27
2022-08-18T17:26:41.199Z,31.03
2022-08-18T17:29:53.308Z,30.71
2022-08-18T17:33:03.342Z,30.53
2022-08-18T17:36:22.530Z,30.30
2022-08-18T17:39:34.439Z,29.98
2022-08-18T17:42:41.241Z,29.76
2022-08-18T17:45:49.902Z,29.57
2022-08-18T17:49:01.085Z,29.40
2022-08-18T17:52:08.245Z,29.20
2022-08-18T17:55:20.638Z,29.03
2022-08-18T17:58:34.518Z,28.87
2022-08-18T18:01:43.484Z,28.69
2022-08-18T18:04:53.229Z,28.53
2022-08-18T18:08:04.156Z,28.39
2022-08-18T18:11:14.615Z,28.26
2022-08-18T18:14:30.619Z,28.13
2022-08-18T18:17:40.352Z,28.01
2022-08-18T18:20:47.073Z,27.89
2022-08-18T18:24:14.428Z,27.78
2022-08-18T18:27:36.027Z,27.69
2022-08-18T18:30:43.267Z,27.56
2022-08-18T18:33:59.614Z,27.48
2022-08-18T18:37:06.210Z,27.37
2022-08-18T18:40:26.755Z,27.30
2022-08-18T18:43:42.153Z,27.19
2022-08-18T18:47:01.180Z,27.10
2022-08-18T18:50:12.879Z,27.03
2022-08-18T18:53:31.517Z,26.96
2022-08-18T18:56:49.253Z,26.86
2022-08-18T19:00:10.665Z,26.77
2022-08-18T19:03:21.388Z,26.69
2022-08-18T19:06:35.822Z,26.61
2022-08-18T19:09:50.443Z,26.52
2022-08-18T19:13:06.377Z,26.43
2022-08-18T19:16:24.162Z,26.34
2022-08-18T19:19:39.219Z,26.24
2022-08-18T19:22:54.700Z,26.15
2022-08-18T19:26:08.352Z,26.03
2022-08-18T19:29:23.888Z,25.92
2022-08-18T19:32:38.249Z,25.82
2022-08-18T19:35:58.819Z,25.75
2022-08-18T19:39:16.399Z,25.67
2022-08-18T19:42:35.340Z,25.60
2022-08-18T19:45:51.691Z,25.55
2022-08-18T19:49:04.658Z,25.48
2022-08-18T19:52:46.426Z,25.44
2022-08-18T19:56:14.507Z,25.37
2022-08-18T19:59:41.401Z,25.30
2022-08-18T20:03:31.994Z,25.26
2022-08-18T20:07:04.095Z,25.18
2022-08-18T20:10:37.795Z,25.12
2022-08-18T20:13:49.409Z,25.06
2022-08-18T20:17:18.676Z,25.01
2022-08-18T20:20:26.477Z,24.93
2022-08-18T20:23:38.038Z,24.87
2022-08-18T20:26:49.323Z,24.81
2022-08-18T20:30:32.143Z,24.76
2022-08-18T20:33:43.928Z,24.68
2022-08-18T20:36:52.027Z,24.64
2022-08-18T20:40:03.360Z,24.61
2022-08-18T20:43:26.059Z,24.54
2022-08-18T20:46:43.305Z,24.47
2022-08-18T20:50:03.730Z,24.41
2022-08-18T20:53:17.517Z,24.31
2022-08-18T20:56:44.024Z,24.30
2022-08-18T20:59:57.186Z,24.24
2022-08-18T21:03:10.430Z,24.20
2022-08-18T21:06:18.594Z,24.17
2022-08-18T21:09:24.507Z,24.15
2022-08-18T21:12:36.588Z,24.14
2022-08-18T21:15:42.535Z,24.11
2022-08-18T21:18:54.041Z,24.09
2022-08-18T21:22:03.596Z,24.07
2022-08-18T21:25:15.914Z,24.05
2022-08-18T21:28:26.077Z,24.01
2022-08-18T21:31:42.966Z,24.00
2022-08-18T21:34:54.005Z,23.97
2022-08-18T21:38:03.322Z,23.95
2022-08-18T21:41:09.782Z,23.94
2022-08-18T21:44:24.780Z,23.94
2022-08-18T21:47:34.195Z,23.91
2022-08-18T21:50:42.309Z,23.88
2022-08-18T21:53:49.304Z,23.86
2022-08-18T21:57:21.136Z,23.87
2022-08-18T22:00:32.669Z,23.84
2022-08-18T22:03:51.188Z,23.82
2022-08-18T22:06:59.649Z,23.80
2022-08-18T22:10:25.479Z,23.78
2022-08-18T22:13:47.768Z,23.74
2022-08-18T22:17:28.064Z,23.73
2022-08-18T22:20:46.140Z,23.68
2022-08-18T22:24:23.090Z,23.65
2022-08-18T22:27:30.114Z,23.61
2022-08-18T22:30:37.216Z,23.62
2022-08-18T22:33:46.654Z,23.61
2022-08-18T22:37:00.099Z,23.60
2022-08-18T22:40:11.980Z,23.57
2022-08-18T22:43:19.565Z,23.56
2022-08-18T22:46:28.894Z,23.55
2022-08-18T22:49:39.037Z,23.54
2022-08-18T22:52:48.528Z,23.52
2022-08-18T22:55:57.886Z,23.50
2022-08-18T22:59:13.758Z,23.48
2022-08-18T23:02:23.309Z,23.47
2022-08-18T23:05:32.523Z,23.46
2022-08-18T23:08:55.740Z,23.43
2022-08-18T23:12:06.125Z,23.43
2022-08-18T23:15:14.119Z,23.41
2022-08-18T23:18:22.319Z,23.40
2022-08-18T23:21:34.843Z,23.39
2022-08-18T23:24:42.755Z,23.36
2022-08-18T23:27:49.697Z,23.37
2022-08-18T23:30:57.891Z,23.38
2022-08-18T23:34:06.410Z,23.40
2022-08-18T23:37:15.137Z,23.40
2022-08-18T23:40:22.198Z,23.43
2022-08-18T23:43:28.209Z,23.42
2022-08-18T23:46:35.448Z,23.39
2022-08-18T23:49:41.602Z,23.32
2022-08-18T23:52:53.273Z,23.29
2022-08-18T23:55:59.335Z,23.28
2022-08-18T23:59:10.561Z,23.26
